sensor_id;sensor_type;location;lat;lon;timestamp;P1;durP1;ratioP1;P2;durP2;ratioP2
51612;SDS011;37694;51.748;14.326;2022-10-16T00:01:07;5.90;;;5.25;;
51612;SDS011;37694;51.748;14.326;2022-10-16T00:03:36;6.80;;;4.78;;
51612;SDS011;37694;51.748;14.326;2022-10-16T00:06:02;6.68;;;4.57;;
51612;SDS011;37694;51.748;14.326;2022-10-16T00:08:28;8.07;;;4.40;;
51612;SDS011;37694;51.748;14.326;2022-10-16T00:13:54;7.22;;;4.90;;
51612;SDS011;37694;51.748;14.326;2022-10-16T00:16:21;5.22;;;4.20;;
51612;SDS011;37694;51.748;14.326;2022-10-16T00:18:47;5.10;;;4.40;;
51612;SDS011;37694;51.748;14.326;2022-10-16T00:21:14;4.65;;;4.13;;
51612;SDS011;37694;51.748;14.326;2022-10-16T00:23:42;5.15;;;4.65;;
51612;SDS011;37694;51.748;14.326;2022-10-16T00:26:09;4.63;;;4.22;;
51612;SDS011;37694;51.748;14.326;2022-10-16T00:28:37;6.28;;;4.57;;
51612;SDS011;37694;51.748;14.326;2022-10-16T00:31:03;4.95;;;4.45;;
51612;SDS011;37694;51.748;14.326;2022-10-16T00:33:30;6.38;;;4.43;;
51612;SDS011;37694;51.748;14.326;2022-10-16T00:35:58;5.15;;;4.65;;
51612;SDS011;37694;51.748;14.326;2022-10-16T00:38:24;5.05;;;4.57;;
51612;SDS011;37694;51.748;14.326;2022-10-16T00:40:50;6.38;;;4.28;;
51612;SDS011;37694;51.748;14.326;2022-10-16T00:46:03;6.72;;;4.95;;
51612;SDS011;37694;51.748;14.326;2022-10-16T00:48:34;5.13;;;4.50;;
51612;SDS011;37694;51.748;14.326;2022-10-16T00:50:59;4.60;;;4.20;;
51612;SDS011;37694;51.748;14.326;2022-10-16T00:53:25;4.68;;;3.50;;
51612;SDS011;37694;51.748;14.326;2022-10-16T00:55:51;5.38;;;4.63;;
51612;SDS011;37694;51.748;14.326;2022-10-16T00:58:17;6.35;;;4.70;;
51612;SDS011;37694;51.748;14.326;2022-10-16T01:00:43;5.55;;;5.00;;
51612;SDS011;37694;51.748;14.326;2022-10-16T01:03:22;4.97;;;4.50;;
51612;SDS011;37694;51.748;14.326;2022-10-16T01:05:56;4.63;;;4.22;;
51612;SDS011;37694;51.748;14.326;2022-10-16T01:08:30;5.90;;;4.57;;
51612;SDS011;37694;51.748;14.326;2022-10-16T01:11:10;4.68;;;4.25;;
51612;SDS011;37694;51.748;14.326;2022-10-16T01:13:46;5.32;;;4.82;;
51612;SDS011;37694;51.748;14.326;2022-10-16T01:16:32;5.03;;;4.53;;
51612;SDS011;37694;51.748;14.326;2022-10-16T01:19:12;6.65;;;5.03;;
51612;SDS011;37694;51.748;14.326;2022-10-16T01:21:43;4.75;;;4.30;;
51612;SDS011;37694;51.748;14.326;2022-10-16T01:24:17;7.95;;;4.80;;
51612;SDS011;37694;51.748;14.326;2022-10-16T01:35:02;4.43;;;4.03;;
51612;SDS011;37694;51.748;14.326;2022-10-16T01:40:38;5.30;;;4.47;;
51612;SDS011;37694;51.748;14.326;2022-10-16T01:43:10;5.30;;;4.80;;
51612;SDS011;37694;51.748;14.326;2022-10-16T01:45:40;5.28;;;4.80;;
51612;SDS011;37694;51.748;14.326;2022-10-16T01:48:06;4.93;;;4.47;;
51612;SDS011;37694;51.748;14.326;2022-10-16T01:50:35;5.13;;;4.65;;
51612;SDS011;37694;51.748;14.326;2022-10-16T01:53:05;5.00;;;4.53;;
51612;SDS011;37694;51.748;14.326;2022-10-16T01:55:33;5.10;;;4.60;;
51612;SDS011;37694;51.748;14.326;2022-10-16T01:58:02;5.03;;;4.57;;
51612;SDS011;37694;51.748;14.326;2022-10-16T02:00:30;5.40;;;4.53;;
51612;SDS011;37694;51.748;14.326;2022-10-16T02:02:56;4.53;;;4.13;;
51612;SDS011;37694;51.748;14.326;2022-10-16T02:05:27;5.22;;;4.70;;
51612;SDS011;37694;51.748;14.326;2022-10-16T02:08:05;5.13;;;4.35;;
51612;SDS011;37694;51.748;14.326;2022-10-16T02:10:31;5.05;;;4.53;;
51612;SDS011;37694;51.748;14.326;2022-10-16T02:12:58;4.00;;;3.70;;
51612;SDS011;37694;51.748;14.326;2022-10-16T02:15:28;4.65;;;4.25;;
51612;SDS011;37694;51.748;14.326;2022-10-16T02:17:54;7.22;;;4.43;;
51612;SDS011;37694;51.748;14.326;2022-10-16T02:20:21;5.25;;;4.40;;
51612;SDS011;37694;51.748;14.326;2022-10-16T02:22:52;5.35;;;4.68;;
51612;SDS011;37694;51.748;14.326;2022-10-16T02:27:57;5.22;;;4.68;;
51612;SDS011;37694;51.748;14.326;2022-10-16T02:30:42;5.32;;;4.45;;
51612;SDS011;37694;51.748;14.326;2022-10-16T02:33:10;6.60;;;3.97;;
51612;SDS011;37694;51.748;14.326;2022-10-16T02:35:38;5.10;;;4.70;;
51612;SDS011;37694;51.748;14.326;2022-10-16T02:38:06;5.40;;;4.35;;
51612;SDS011;37694;51.748;14.326;2022-10-16T02:40:34;6.68;;;4.40;;
51612;SDS011;37694;51.748;14.326;2022-10-16T02:43:02;7.50;;;4.70;;
51612;SDS011;37694;51.748;14.326;2022-10-16T02:45:29;5.13;;;4.50;;
51612;SDS011;37694;51.748;14.326;2022-10-16T02:47:54;4.72;;;4.28;;
51612;SDS011;37694;51.748;14.326;2022-10-16T02:50:20;5.18;;;4.68;;
51612;SDS011;37694;51.748;14.326;2022-10-16T02:52:47;6.10;;;5.07;;
51612;SDS011;37694;51.748;14.326;2022-10-16T02:55:12;4.75;;;4.30;;
51612;SDS011;37694;51.748;14.326;2022-10-16T02:57:38;6.78;;;4.80;;
51612;SDS011;37694;51.748;14.326;2022-10-16T03:00:05;4.60;;;4.10;;
51612;SDS011;37694;51.748;14.326;2022-10-16T03:02:36;4.43;;;4.03;;
51612;SDS011;37694;51.748;14.326;2022-10-16T03:05:01;5.05;;;4.55;;
51612;SDS011;37694;51.748;14.326;2022-10-16T03:07:27;5.28;;;4.47;;
51612;SDS011;37694;51.748;14.326;2022-10-16T03:09:53;4.63;;;4.22;;
51612;SDS011;37694;51.748;14.326;2022-10-16T03:12:19;4.75;;;4.25;;
51612;SDS011;37694;51.748;14.326;2022-10-16T03:14:45;5.20;;;4.70;;
51612;SDS011;37694;51.748;14.326;2022-10-16T03:17:10;4.50;;;4.10;;
51612;SDS011;37694;51.748;14.326;2022-10-16T03:19:37;4.47;;;4.07;;
51612;SDS011;37694;51.748;14.326;2022-10-16T03:22:03;4.78;;;4.38;;
51612;SDS011;37694;51.748;14.326;2022-10-16T03:24:29;5.10;;;4.60;;
51612;SDS011;37694;51.748;14.326;2022-10-16T03:26:54;4.40;;;4.00;;
51612;SDS011;37694;51.748;14.326;2022-10-16T03:29:20;5.05;;;4.55;;
51612;SDS011;37694;51.748;14.326;2022-10-16T03:31:45;4.47;;;4.07;;
51612;SDS011;37694;51.748;14.326;2022-10-16T03:34:13;4.93;;;4.32;;
51612;SDS011;37694;51.748;14.326;2022-10-16T03:36:38;5.70;;;4.47;;
51612;SDS011;37694;51.748;14.326;2022-10-16T03:39:04;5.25;;;4.07;;
51612;SDS011;37694;51.748;14.326;2022-10-16T03:41:29;4.85;;;4.38;;
51612;SDS011;37694;51.748;14.326;2022-10-16T03:43:55;7.70;;;4.03;;
51612;SDS011;37694;51.748;14.326;2022-10-16T03:46:21;4.90;;;4.43;;
51612;SDS011;37694;51.748;14.326;2022-10-16T03:48:46;4.68;;;3.92;;
51612;SDS011;37694;51.748;14.326;2022-10-16T03:51:13;5.15;;;4.15;;
51612;SDS011;37694;51.748;14.326;2022-10-16T03:53:38;4.28;;;3.70;;
51612;SDS011;37694;51.748;14.326;2022-10-16T03:56:04;4.53;;;4.03;;
51612;SDS011;37694;51.748;14.326;2022-10-16T03:58:30;4.60;;;4.15;;
51612;SDS011;37694;51.748;14.326;2022-10-16T04:00:55;4.93;;;4.03;;
51612;SDS011;37694;51.748;14.326;2022-10-16T04:03:21;4.57;;;4.05;;
51612;SDS011;37694;51.748;14.326;2022-10-16T04:05:47;4.50;;;4.10;;
51612;SDS011;37694;51.748;14.326;2022-10-16T04:08:13;5.25;;;4.35;;
51612;SDS011;37694;51.748;14.326;2022-10-16T04:10:39;6.35;;;4.15;;
51612;SDS011;37694;51.748;14.326;2022-10-16T04:13:05;4.40;;;4.00;;
51612;SDS011;37694;51.748;14.326;2022-10-16T04:15:30;4.25;;;3.85;;
51612;SDS011;37694;51.748;14.326;2022-10-16T04:17:56;4.50;;;4.07;;
51612;SDS011;37694;51.748;14.326;2022-10-16T04:20:21;3.67;;;3.38;;
51612;SDS011;37694;51.748;14.326;2022-10-16T04:22:47;5.25;;;4.30;;
51612;SDS011;37694;51.748;14.326;2022-10-16T04:25:13;5.82;;;4.25;;
51612;SDS011;37694;51.748;14.326;2022-10-16T04:27:38;4.85;;;4.10;;
51612;SDS011;37694;51.748;14.326;2022-10-16T04:30:04;4.50;;;4.10;;
51612;SDS011;37694;51.748;14.326;2022-10-16T04:32:30;3.95;;;3.63;;
51612;SDS011;37694;51.748;14.326;2022-10-16T04:34:56;6.25;;;3.95;;
51612;SDS011;37694;51.748;14.326;2022-10-16T04:37:24;3.92;;;3.58;;
51612;SDS011;37694;51.748;14.326;2022-10-16T04:39:51;6.72;;;4.15;;
51612;SDS011;37694;51.748;14.326;2022-10-16T04:42:17;8.40;;;4.20;;
51612;SDS011;37694;51.748;14.326;2022-10-16T04:44:43;3.83;;;3.38;;
51612;SDS011;37694;51.748;14.326;2022-10-16T04:47:08;3.65;;;3.30;;
51612;SDS011;37694;51.748;14.326;2022-10-16T04:49:34;4.22;;;3.83;;
51612;SDS011;37694;51.748;14.326;2022-10-16T04:51:59;10.25;;;4.43;;
51612;SDS011;37694;51.748;14.326;2022-10-16T04:54:25;4.22;;;3.50;;
51612;SDS011;37694;51.748;14.326;2022-10-16T04:56:51;9.27;;;4.28;;
51612;SDS011;37694;51.748;14.326;2022-10-16T04:59:17;4.57;;;3.63;;
51612;SDS011;37694;51.748;14.326;2022-10-16T05:01:44;4.63;;;4.00;;
51612;SDS011;37694;51.748;14.326;2022-10-16T05:04:09;6.90;;;4.10;;
51612;SDS011;37694;51.748;14.326;2022-10-16T05:06:36;5.95;;;4.00;;
51612;SDS011;37694;51.748;14.326;2022-10-16T05:09:03;4.65;;;3.85;;
51612;SDS011;37694;51.748;14.326;2022-10-16T05:11:29;4.32;;;3.90;;
51612;SDS011;37694;51.748;14.326;2022-10-16T05:13:55;4.45;;;4.05;;
51612;SDS011;37694;51.748;14.326;2022-10-16T05:16:21;4.00;;;3.60;;
51612;SDS011;37694;51.748;14.326;2022-10-16T05:18:46;3.83;;;3.47;;
51612;SDS011;37694;51.748;14.326;2022-10-16T05:21:12;3.95;;;3.50;;
51612;SDS011;37694;51.748;14.326;2022-10-16T05:23:37;4.00;;;3.60;;
51612;SDS011;37694;51.748;14.326;2022-10-16T05:26:03;7.38;;;3.80;;
51612;SDS011;37694;51.748;14.326;2022-10-16T05:28:29;3.58;;;3.28;;
51612;SDS011;37694;51.748;14.326;2022-10-16T05:30:56;5.10;;;3.92;;
51612;SDS011;37694;51.748;14.326;2022-10-16T05:33:23;4.38;;;3.92;;
51612;SDS011;37694;51.748;14.326;2022-10-16T05:35:49;6.43;;;3.70;;
51612;SDS011;37694;51.748;14.326;2022-10-16T05:38:16;4.63;;;3.60;;
51612;SDS011;37694;51.748;14.326;2022-10-16T05:40:42;5.18;;;3.70;;
51612;SDS011;37694;51.748;14.326;2022-10-16T05:43:08;10.52;;;3.55;;
51612;SDS011;37694;51.748;14.326;2022-10-16T05:45:34;7.55;;;4.40;;
51612;SDS011;37694;51.748;14.326;2022-10-16T05:48:00;5.28;;;3.75;;
51612;SDS011;37694;51.748;14.326;2022-10-16T05:50:26;12.88;;;3.75;;
51612;SDS011;37694;51.748;14.326;2022-10-16T05:52:52;5.70;;;3.50;;
51612;SDS011;37694;51.748;14.326;2022-10-16T05:55:17;7.30;;;3.78;;
51612;SDS011;37694;51.748;14.326;2022-10-16T05:57:43;15.82;;;4.63;;
51612;SDS011;37694;51.748;14.326;2022-10-16T06:00:09;14.07;;;4.00;;
51612;SDS011;37694;51.748;14.326;2022-10-16T06:02:35;24.80;;;4.63;;
51612;SDS011;37694;51.748;14.326;2022-10-16T06:05:00;11.48;;;3.67;;
51612;SDS011;37694;51.748;14.326;2022-10-16T06:07:26;8.50;;;3.63;;
51612;SDS011;37694;51.748;14.326;2022-10-16T06:09:52;9.98;;;3.40;;
51612;SDS011;37694;51.748;14.326;2022-10-16T06:12:18;8.88;;;3.92;;
51612;SDS011;37694;51.748;14.326;2022-10-16T06:14:44;11.23;;;3.90;;
51612;SDS011;37694;51.748;14.326;2022-10-16T06:17:11;9.82;;;4.22;;
51612;SDS011;37694;51.748;14.326;2022-10-16T06:19:38;11.68;;;4.22;;
51612;SDS011;37694;51.748;14.326;2022-10-16T06:22:03;8.25;;;3.97;;
51612;SDS011;37694;51.748;14.326;2022-10-16T06:24:29;19.50;;;4.45;;
51612;SDS011;37694;51.748;14.326;2022-10-16T06:26:55;8.20;;;3.80;;
51612;SDS011;37694;51.748;14.326;2022-10-16T06:29:20;13.43;;;3.63;;
51612;SDS011;37694;51.748;14.326;2022-10-16T06:31:46;9.15;;;3.90;;
51612;SDS011;37694;51.748;14.326;2022-10-16T06:34:11;10.40;;;3.53;;
51612;SDS011;37694;51.748;14.326;2022-10-16T06:36:37;5.82;;;3.55;;
51612;SDS011;37694;51.748;14.326;2022-10-16T06:39:04;4.60;;;3.47;;
51612;SDS011;37694;51.748;14.326;2022-10-16T06:41:32;9.05;;;3.55;;
51612;SDS011;37694;51.748;14.326;2022-10-16T06:43:59;7.35;;;3.70;;
51612;SDS011;37694;51.748;14.326;2022-10-16T06:46:25;5.78;;;3.53;;
51612;SDS011;37694;51.748;14.326;2022-10-16T06:48:52;4.00;;;3.53;;
51612;SDS011;37694;51.748;14.326;2022-10-16T06:51:21;11.35;;;4.00;;
51612;SDS011;37694;51.748;14.326;2022-10-16T06:53:52;5.45;;;3.83;;
51612;SDS011;37694;51.748;14.326;2022-10-16T06:56:22;8.95;;;4.18;;
51612;SDS011;37694;51.748;14.326;2022-10-16T06:58:53;7.60;;;2.97;;
51612;SDS011;37694;51.748;14.326;2022-10-16T07:01:20;6.57;;;3.78;;
51612;SDS011;37694;51.748;14.326;2022-10-16T07:03:48;7.78;;;3.40;;
51612;SDS011;37694;51.748;14.326;2022-10-16T07:06:17;5.57;;;3.70;;
51612;SDS011;37694;51.748;14.326;2022-10-16T07:08:45;7.57;;;4.00;;
51612;SDS011;37694;51.748;14.326;2022-10-16T07:11:12;5.70;;;3.50;;
51612;SDS011;37694;51.748;14.326;2022-10-16T07:13:40;4.40;;;4.00;;
51612;SDS011;37694;51.748;14.326;2022-10-16T07:18:34;9.40;;;3.45;;
51612;SDS011;37694;51.748;14.326;2022-10-16T07:21:09;14.68;;;4.25;;
51612;SDS011;37694;51.748;14.326;2022-10-16T07:23:37;17.73;;;4.13;;
51612;SDS011;37694;51.748;14.326;2022-10-16T07:26:03;4.68;;;3.17;;
51612;SDS011;37694;51.748;14.326;2022-10-16T07:28:29;13.15;;;3.75;;
51612;SDS011;37694;51.748;14.326;2022-10-16T07:30:55;13.85;;;4.22;;
51612;SDS011;37694;51.748;14.326;2022-10-16T07:33:20;9.95;;;4.45;;
51612;SDS011;37694;51.748;14.326;2022-10-16T07:35:47;6.78;;;3.45;;
51612;SDS011;37694;51.748;14.326;2022-10-16T07:38:16;18.17;;;3.80;;
51612;SDS011;37694;51.748;14.326;2022-10-16T07:40:42;15.52;;;3.72;;
51612;SDS011;37694;51.748;14.326;2022-10-16T07:43:08;11.68;;;3.90;;
51612;SDS011;37694;51.748;14.326;2022-10-16T07:45:34;14.68;;;3.83;;
51612;SDS011;37694;51.748;14.326;2022-10-16T07:47:59;18.67;;;4.25;;
51612;SDS011;37694;51.748;14.326;2022-10-16T07:50:25;29.70;;;4.18;;
51612;SDS011;37694;51.748;14.326;2022-10-16T07:52:50;14.60;;;4.30;;
51612;SDS011;37694;51.748;14.326;2022-10-16T07:55:16;24.58;;;4.00;;
51612;SDS011;37694;51.748;14.326;2022-10-16T07:57:42;27.75;;;4.50;;
51612;SDS011;37694;51.748;14.326;2022-10-16T08:00:07;20.52;;;4.88;;
51612;SDS011;37694;51.748;14.326;2022-10-16T08:02:38;24.45;;;4.70;;
51612;SDS011;37694;51.748;14.326;2022-10-16T08:05:07;27.25;;;4.18;;
51612;SDS011;37694;51.748;14.326;2022-10-16T08:07:33;25.88;;;4.32;;
51612;SDS011;37694;51.748;14.326;2022-10-16T08:09:58;25.08;;;4.63;;
51612;SDS011;37694;51.748;14.326;2022-10-16T08:12:25;35.00;;;4.53;;
51612;SDS011;37694;51.748;14.326;2022-10-16T08:14:51;18.15;;;4.45;;
51612;SDS011;37694;51.748;14.326;2022-10-16T08:17:16;21.67;;;3.75;;
51612;SDS011;37694;51.748;14.326;2022-10-16T08:19:45;18.55;;;4.32;;
51612;SDS011;37694;51.748;14.326;2022-10-16T08:22:12;22.17;;;3.63;;
51612;SDS011;37694;51.748;14.326;2022-10-16T08:24:38;25.80;;;4.82;;
51612;SDS011;37694;51.748;14.326;2022-10-16T08:27:04;17.08;;;3.88;;
51612;SDS011;37694;51.748;14.326;2022-10-16T08:29:29;23.10;;;4.22;;
51612;SDS011;37694;51.748;14.326;2022-10-16T08:31:55;23.25;;;4.50;;
51612;SDS011;37694;51.748;14.326;2022-10-16T08:34:20;24.00;;;4.43;;
51612;SDS011;37694;51.748;14.326;2022-10-16T08:36:46;23.20;;;4.95;;
51612;SDS011;37694;51.748;14.326;2022-10-16T08:39:12;38.08;;;5.05;;
51612;SDS011;37694;51.748;14.326;2022-10-16T08:41:54;22.63;;;4.63;;
51612;SDS011;37694;51.748;14.326;2022-10-16T08:50:40;12.50;;;4.25;;
51612;SDS011;37694;51.748;14.326;2022-10-16T08:53:06;20.85;;;4.65;;
51612;SDS011;37694;51.748;14.326;2022-10-16T08:55:39;35.05;;;4.93;;
51612;SDS011;37694;51.748;14.326;2022-10-16T08:58:18;23.48;;;4.47;;
51612;SDS011;37694;51.748;14.326;2022-10-16T09:00:55;27.05;;;4.25;;
51612;SDS011;37694;51.748;14.326;2022-10-16T09:03:36;12.85;;;3.60;;
51612;SDS011;37694;51.748;14.326;2022-10-16T09:14:54;37.58;;;5.30;;
51612;SDS011;37694;51.748;14.326;2022-10-16T09:20:42;37.33;;;5.18;;
51612;SDS011;37694;51.748;14.326;2022-10-16T09:22:51;36.58;;;5.15;;
51612;SDS011;37694;51.748;14.326;2022-10-16T09:25:39;47.47;;;6.47;;
51612;SDS011;37694;51.748;14.326;2022-10-16T09:28:08;40.90;;;5.30;;
51612;SDS011;37694;51.748;14.326;2022-10-16T09:30:34;40.05;;;6.65;;
51612;SDS011;37694;51.748;14.326;2022-10-16T09:33:00;44.10;;;5.95;;
51612;SDS011;37694;51.748;14.326;2022-10-16T09:38:06;35.80;;;6.45;;
51612;SDS011;37694;51.748;14.326;2022-10-16T09:40:36;36.65;;;7.43;;
51612;SDS011;37694;51.748;14.326;2022-10-16T09:43:16;57.15;;;15.35;;
51612;SDS011;37694;51.748;14.326;2022-10-16T09:51:18;22.10;;;5.32;;
51612;SDS011;37694;51.748;14.326;2022-10-16T09:53:57;31.60;;;5.85;;
51612;SDS011;37694;51.748;14.326;2022-10-16T09:56:42;13.57;;;4.72;;
51612;SDS011;37694;51.748;14.326;2022-10-16T09:59:12;23.77;;;5.15;;
51612;SDS011;37694;51.748;14.326;2022-10-16T10:01:48;22.55;;;4.78;;
51612;SDS011;37694;51.748;14.326;2022-10-16T10:04:16;22.13;;;5.78;;
51612;SDS011;37694;51.748;14.326;2022-10-16T10:06:50;30.20;;;6.68;;
51612;SDS011;37694;51.748;14.326;2022-10-16T10:14:22;16.70;;;3.70;;
51612;SDS011;37694;51.748;14.326;2022-10-16T10:16:48;19.55;;;4.13;;
51612;SDS011;37694;51.748;14.326;2022-10-16T10:19:22;18.45;;;3.67;;
51612;SDS011;37694;51.748;14.326;2022-10-16T10:21:49;21.83;;;4.28;;
51612;SDS011;37694;51.748;14.326;2022-10-16T10:24:16;16.75;;;3.35;;
51612;SDS011;37694;51.748;14.326;2022-10-16T10:38:19;19.05;;;2.75;;
51612;SDS011;37694;51.748;14.326;2022-10-16T10:43:41;10.68;;;1.80;;
51612;SDS011;37694;51.748;14.326;2022-10-16T10:46:41;4.18;;;1.52;;
51612;SDS011;37694;51.748;14.326;2022-10-16T10:49:25;6.65;;;1.95;;
51612;SDS011;37694;51.748;14.326;2022-10-16T10:55:16;4.80;;;1.38;;
51612;SDS011;37694;51.748;14.326;2022-10-16T10:57:51;7.43;;;1.45;;
51612;SDS011;37694;51.748;14.326;2022-10-16T11:01:07;2.00;;;0.90;;
51612;SDS011;37694;51.748;14.326;2022-10-16T11:09:18;0.90;;;0.50;;
51612;SDS011;37694;51.748;14.326;2022-10-16T11:14:48;0.63;;;0.63;;
51612;SDS011;37694;51.748;14.326;2022-10-16T11:17:24;1.10;;;0.52;;
51612;SDS011;37694;51.748;14.326;2022-10-16T11:20:26;1.77;;;0.70;;
51612;SDS011;37694;51.748;14.326;2022-10-16T11:22:54;0.38;;;0.32;;
51612;SDS011;37694;51.748;14.326;2022-10-16T11:25:29;0.50;;;0.40;;
51612;SDS011;37694;51.748;14.326;2022-10-16T11:28:03;1.20;;;0.45;;
51612;SDS011;37694;51.748;14.326;2022-10-16T11:33:57;0.30;;;0.30;;
51612;SDS011;37694;51.748;14.326;2022-10-16T11:36:39;0.20;;;0.20;;
51612;SDS011;37694;51.748;14.326;2022-10-16T11:39:27;1.48;;;0.30;;
51612;SDS011;37694;51.748;14.326;2022-10-16T11:41:59;1.48;;;0.35;;
51612;SDS011;37694;51.748;14.326;2022-10-16T11:50:34;0.20;;;0.20;;
51612;SDS011;37694;51.748;14.326;2022-10-16T11:55:48;0.75;;;0.30;;
51612;SDS011;37694;51.748;14.326;2022-10-16T12:08:48;0.10;;;0.10;;
51612;SDS011;37694;51.748;14.326;2022-10-16T12:14:03;0.28;;;0.08;;
51612;SDS011;37694;51.748;14.326;2022-10-16T12:16:30;0.10;;;0.10;;
51612;SDS011;37694;51.748;14.326;2022-10-16T12:19:15;0.10;;;0.10;;
51612;SDS011;37694;51.748;14.326;2022-10-16T12:21:42;0.10;;;0.10;;
51612;SDS011;37694;51.748;14.326;2022-10-16T12:26:53;0.20;;;0.20;;
51612;SDS011;37694;51.748;14.326;2022-10-16T12:32:23;0.10;;;0.10;;
51612;SDS011;37694;51.748;14.326;2022-10-16T12:34:57;0.10;;;0.10;;
51612;SDS011;37694;51.748;14.326;2022-10-16T12:37:24;0.20;;;0.10;;
51612;SDS011;37694;51.748;14.326;2022-10-16T12:39:51;0.00;;;0.00;;
51612;SDS011;37694;51.748;14.326;2022-10-16T12:44:55;0.15;;;0.15;;
51612;SDS011;37694;51.748;14.326;2022-10-16T12:49:55;1.67;;;0.20;;
51612;SDS011;37694;51.748;14.326;2022-10-16T12:52:54;2.38;;;0.82;;
51612;SDS011;37694;51.748;14.326;2022-10-16T12:55:15;4.40;;;0.95;;
51612;SDS011;37694;51.748;14.326;2022-10-16T13:00:44;13.38;;;1.00;;
51612;SDS011;37694;51.748;14.326;2022-10-16T13:06:25;24.85;;;2.03;;
51612;SDS011;37694;51.748;14.326;2022-10-16T13:12:02;14.82;;;1.33;;
51612;SDS011;37694;51.748;14.326;2022-10-16T13:20:16;28.00;;;2.28;;
51612;SDS011;37694;51.748;14.326;2022-10-16T13:22:59;10.35;;;1.40;;
51612;SDS011;37694;51.748;14.326;2022-10-16T13:25:44;24.50;;;2.30;;
51612;SDS011;37694;51.748;14.326;2022-10-16T13:28:21;13.82;;;1.90;;
51612;SDS011;37694;51.748;14.326;2022-10-16T13:30:53;11.60;;;1.52;;
51612;SDS011;37694;51.748;14.326;2022-10-16T13:33:24;8.88;;;1.40;;
51612;SDS011;37694;51.748;14.326;2022-10-16T13:35:53;8.73;;;1.25;;
51612;SDS011;37694;51.748;14.326;2022-10-16T13:38:21;9.88;;;1.38;;
51612;SDS011;37694;51.748;14.326;2022-10-16T13:43:26;25.20;;;2.10;;
51612;SDS011;37694;51.748;14.326;2022-10-16T13:45:55;10.52;;;1.38;;
51612;SDS011;37694;51.748;14.326;2022-10-16T13:48:27;10.27;;;1.73;;
51612;SDS011;37694;51.748;14.326;2022-10-16T13:51:03;21.52;;;2.35;;
51612;SDS011;37694;51.748;14.326;2022-10-16T13:53:33;19.92;;;2.38;;
51612;SDS011;37694;51.748;14.326;2022-10-16T13:56:01;19.85;;;2.28;;
51612;SDS011;37694;51.748;14.326;2022-10-16T13:58:31;18.83;;;2.08;;
51612;SDS011;37694;51.748;14.326;2022-10-16T14:01:01;20.90;;;2.38;;
51612;SDS011;37694;51.748;14.326;2022-10-16T14:03:30;21.60;;;2.78;;
51612;SDS011;37694;51.748;14.326;2022-10-16T14:06:00;14.45;;;2.08;;
51612;SDS011;37694;51.748;14.326;2022-10-16T14:08:29;23.35;;;2.55;;
51612;SDS011;37694;51.748;14.326;2022-10-16T14:10:56;28.13;;;2.05;;
51612;SDS011;37694;51.748;14.326;2022-10-16T14:13:43;17.08;;;2.80;;
51612;SDS011;37694;51.748;14.326;2022-10-16T14:16:11;17.70;;;3.22;;
51612;SDS011;37694;51.748;14.326;2022-10-16T14:19:02;27.08;;;3.10;;
51612;SDS011;37694;51.748;14.326;2022-10-16T14:21:31;25.98;;;2.60;;
51612;SDS011;37694;51.748;14.326;2022-10-16T14:23:58;20.80;;;2.88;;
51612;SDS011;37694;51.748;14.326;2022-10-16T14:26:25;10.93;;;1.95;;
51612;SDS011;37694;51.748;14.326;2022-10-16T14:29:03;25.80;;;2.67;;
51612;SDS011;37694;51.748;14.326;2022-10-16T14:31:42;19.38;;;1.80;;
51612;SDS011;37694;51.748;14.326;2022-10-16T14:34:22;8.98;;;1.55;;
51612;SDS011;37694;51.748;14.326;2022-10-16T14:39:50;17.50;;;1.65;;
51612;SDS011;37694;51.748;14.326;2022-10-16T14:42:18;8.95;;;1.42;;
51612;SDS011;37694;51.748;14.326;2022-10-16T14:44:45;19.23;;;2.42;;
51612;SDS011;37694;51.748;14.326;2022-10-16T14:47:13;19.25;;;2.35;;
51612;SDS011;37694;51.748;14.326;2022-10-16T14:49:41;11.68;;;2.17;;
51612;SDS011;37694;51.748;14.326;2022-10-16T14:52:08;18.83;;;2.47;;
51612;SDS011;37694;51.748;14.326;2022-10-16T14:54:37;17.05;;;2.03;;
51612;SDS011;37694;51.748;14.326;2022-10-16T14:57:03;19.23;;;2.83;;
51612;SDS011;37694;51.748;14.326;2022-10-16T15:02:24;18.67;;;2.25;;
51612;SDS011;37694;51.748;14.326;2022-10-16T15:04:54;21.63;;;2.35;;
51612;SDS011;37694;51.748;14.326;2022-10-16T15:07:20;13.75;;;2.28;;
51612;SDS011;37694;51.748;14.326;2022-10-16T15:09:46;16.35;;;1.70;;
51612;SDS011;37694;51.748;14.326;2022-10-16T15:12:12;23.40;;;2.42;;
51612;SDS011;37694;51.748;14.326;2022-10-16T15:14:37;20.02;;;2.47;;
51612;SDS011;37694;51.748;14.326;2022-10-16T15:17:03;17.30;;;2.95;;
51612;SDS011;37694;51.748;14.326;2022-10-16T15:19:29;19.02;;;2.35;;
51612;SDS011;37694;51.748;14.326;2022-10-16T15:21:54;18.20;;;2.42;;
51612;SDS011;37694;51.748;14.326;2022-10-16T15:24:20;19.35;;;3.10;;
51612;SDS011;37694;51.748;14.326;2022-10-16T15:26:46;20.80;;;2.53;;
51612;SDS011;37694;51.748;14.326;2022-10-16T15:29:12;27.60;;;2.78;;
51612;SDS011;37694;51.748;14.326;2022-10-16T15:31:38;15.40;;;2.65;;
51612;SDS011;37694;51.748;14.326;2022-10-16T15:34:04;23.55;;;2.30;;
51612;SDS011;37694;51.748;14.326;2022-10-16T15:36:34;11.88;;;2.28;;
51612;SDS011;37694;51.748;14.326;2022-10-16T15:39:05;14.60;;;1.98;;
51612;SDS011;37694;51.748;14.326;2022-10-16T15:41:39;20.25;;;2.53;;
51612;SDS011;37694;51.748;14.326;2022-10-16T15:44:06;21.08;;;1.60;;
51612;SDS011;37694;51.748;14.326;2022-10-16T15:46:31;10.32;;;1.50;;
51612;SDS011;37694;51.748;14.326;2022-10-16T15:48:58;18.88;;;2.30;;
51612;SDS011;37694;51.748;14.326;2022-10-16T15:51:25;17.65;;;2.28;;
51612;SDS011;37694;51.748;14.326;2022-10-16T15:53:58;12.35;;;1.70;;
51612;SDS011;37694;51.748;14.326;2022-10-16T15:56:26;9.35;;;1.30;;
51612;SDS011;37694;51.748;14.326;2022-10-16T15:58:53;9.07;;;1.33;;
51612;SDS011;37694;51.748;14.326;2022-10-16T16:01:19;10.23;;;1.20;;
51612;SDS011;37694;51.748;14.326;2022-10-16T16:03:46;12.45;;;1.45;;
51612;SDS011;37694;51.748;14.326;2022-10-16T16:06:12;10.13;;;1.90;;
51612;SDS011;37694;51.748;14.326;2022-10-16T16:08:38;6.78;;;0.93;;
51612;SDS011;37694;51.748;14.326;2022-10-16T16:11:08;5.53;;;1.17;;
51612;SDS011;37694;51.748;14.326;2022-10-16T16:13:35;9.55;;;1.30;;
51612;SDS011;37694;51.748;14.326;2022-10-16T16:16:05;5.43;;;1.33;;
51612;SDS011;37694;51.748;14.326;2022-10-16T16:18:32;9.68;;;1.50;;
51612;SDS011;37694;51.748;14.326;2022-10-16T16:20:58;7.38;;;1.38;;
51612;SDS011;37694;51.748;14.326;2022-10-16T16:23:23;6.45;;;1.40;;
51612;SDS011;37694;51.748;14.326;2022-10-16T16:26:02;11.50;;;1.05;;
51612;SDS011;37694;51.748;14.326;2022-10-16T16:28:34;9.73;;;1.58;;
51612;SDS011;37694;51.748;14.326;2022-10-16T16:31:00;11.02;;;1.48;;
51612;SDS011;37694;51.748;14.326;2022-10-16T16:33:26;12.35;;;1.38;;
51612;SDS011;37694;51.748;14.326;2022-10-16T16:35:56;13.07;;;1.55;;
51612;SDS011;37694;51.748;14.326;2022-10-16T16:38:22;15.35;;;2.03;;
51612;SDS011;37694;51.748;14.326;2022-10-16T16:40:48;17.50;;;2.33;;
51612;SDS011;37694;51.748;14.326;2022-10-16T16:43:13;6.78;;;1.27;;
51612;SDS011;37694;51.748;14.326;2022-10-16T16:45:39;12.45;;;1.98;;
51612;SDS011;37694;51.748;14.326;2022-10-16T16:48:05;9.68;;;1.40;;
51612;SDS011;37694;51.748;14.326;2022-10-16T16:50:35;10.93;;;1.58;;
51612;SDS011;37694;51.748;14.326;2022-10-16T16:53:03;10.73;;;1.90;;
51612;SDS011;37694;51.748;14.326;2022-10-16T16:55:29;8.80;;;1.13;;
51612;SDS011;37694;51.748;14.326;2022-10-16T16:57:54;18.67;;;1.38;;